Latest METARs, TAFs and NOTAMs for EGSS


---------------------------------------------------------------------------
	(OBSERVATIONS)
EGSS 230820Z AUTO 35007KT 5000 -RA OVC003/// //////CB 09/09 Q1014=
EGSS 230750Z AUTO 35007KT 5000 -RA BKN003/// BKN008/// //////TCU
    09/08 Q1014 RERA=
EGSS 230720Z AUTO 36005KT 5000 -RA BKN046/// //////TCU 09/08
    Q1013=
EGSS 230650Z AUTO 36007KT 5000 -RA SCT006/// SCT010/// OVC035///
    //////TCU 09/08 Q1013 RERA=
EGSS 230620Z AUTO 01006KT 4100 RA BKN004 BKN027 BKN034 09/08
    Q1013 REDZ=
EGSS 230550Z AUTO 36006KT 2700 DZ SCT013 OVC025 09/08 Q1014=
---------------------------------------------------------------------------
	(FC)
Sorry, FC For EGSS Not Found
---------------------------------------------------------------------------
	(TERMINAL AREA FORECAST)
AMD EGSS 230639Z 2306/2412 02008KT 9999 SCT025
    BECMG 2306/2309 32010KT -RA BKN011
    TEMPO 2306/2313 4000 RA BKN009 PROB30
    TEMPO 2306/2312 BKN004
    BECMG 2313/2315 NSW SCT035
    TEMPO 2313/2318 33015G25KT=
---------------------------------------------------------------------------
	(NOTAMS)


EGSS A3038/18 TWY ECHO EAST AND MIDDLE LINES ARE CLOSED TO ALL
    TRAFFIC STANDS 90, 90L, 90R, 91, 91L AND 91R ARE CLOSED.
    18 SEP 11:23 2018 UNTIL 06 NOV 09:00 2018. CREATED: 18 SEP
    11:24 2018

EGSS A3047/18 RWY 04/22 CLOSED DUE WIP. 15 OCT 00:15 2018 UNTIL
    15 OCT 04:40 2018. CREATED: 19 SEP 22:17 2018

EGSS A3048/18 RWY 04/22 CLOSED DUE WIP. 14 OCT 00:15 2018 UNTIL
    14 OCT 04:40 2018. CREATED: 19 SEP 22:18 2018

EGSS A3049/18 RWY 04/22 CLOSED DUE WIP. 08 OCT 00:15 2018 UNTIL
    08 OCT 04:40 2018. CREATED: 19 SEP 22:20 2018

EGSS A3050/18 RWY 04/22 CLOSED DUE WIP. 07 OCT 00:15 2018 UNTIL
    07 OCT 04:40 2018. CREATED: 19 SEP 22:20 2018

EGSS A3051/18 RWY 04/22 CLOSED DUE WIP. 01 OCT 00:15 2018 UNTIL
    01 OCT 04:40 2018. CREATED: 19 SEP 22:22 2018

EGSS A3052/18 RWY 04/22 CLOSED DUE WIP. 30 SEP 00:15 2018 UNTIL
    30 SEP 04:40 2018. CREATED: 19 SEP 22:23 2018

EGSS A3556/17 NEW TAXIWAY INFRASTRUCTURE NORTHEAST OF TAXIWAY
    LINK DELTA, EXTENSION OF TAXIWAY HOTEL BETWEEN LINK DELTA
    AND NEW LINK ECHO FEEDING APRON ECHO. 26 OCT 11:44 2017 UNTIL
    PERM. CREATED: 26 OCT 11:46 2017

---------------------------------------------------------------------------